Time;durP1;ratioP1;P1;durP2;ratioP2;P2;SDS_P1;SDS_P2;PMS_P1;PMS_P2;Temp;Humidity;BMP_temperature;BMP_pressure;BME280_temperature;BME280_humidity;BME280_pressure;Samples;Min_cycle;Max_cycle;Signal;HPM_P1;HPM_P2
2023/09/22 00:03:50;;;;;;;2.17;1.00;;;18.30;99.90;;;;;;20914284;28;20644;-69
2023/09/22 00:13:52;;;;;;;2.07;1.20;;;18.30;99.90;;;;;;20928282;28;20289;-72
2023/09/22 00:23:54;;;;;;;1.17;1.10;;;18.20;99.90;;;;;;20927630;28;20242;-72
2023/09/22 00:33:56;;;;;;;1.60;0.80;;;18.20;99.90;;;;;;20928294;28;20239;-69
2023/09/22 00:43:58;;;;;;;1.40;0.90;;;18.30;99.90;;;;;;20925919;28;20238;-70
2023/09/22 00:54:01;;;;;;;2.73;1.30;;;18.30;99.90;;;;;;20925096;28;20238;-67
2023/09/22 01:04:03;;;;;;;1.70;0.93;;;18.20;99.90;;;;;;20924802;28;20244;-68
2023/09/22 01:14:06;;;;;;;2.23;1.00;;;18.10;99.90;;;;;;20923234;28;20211;-68
2023/09/22 01:24:09;;;;;;;3.57;3.10;;;18.10;99.90;;;;;;20923171;28;20773;-68
2023/09/22 01:34:11;;;;;;;3.27;2.53;;;18.20;99.90;;;;;;20922779;28;20215;-68
2023/09/22 01:44:12;;;;;;;2.70;1.60;;;18.10;99.90;;;;;;20920234;28;20322;-71
2023/09/22 01:54:15;;;;;;;4.07;1.37;;;18.00;99.90;;;;;;20920454;28;20259;-71
2023/09/22 02:04:17;;;;;;;1.90;1.20;;;17.90;99.90;;;;;;20920155;28;20234;-68
2023/09/22 02:14:19;;;;;;;2.33;1.40;;;17.80;99.90;;;;;;20918300;28;20204;-68
2023/09/22 02:24:21;;;;;;;1.63;1.17;;;17.80;99.90;;;;;;20918364;28;20270;-68
2023/09/22 02:34:22;;;;;;;1.50;1.03;;;17.70;99.90;;;;;;20917011;28;20211;-69
2023/09/22 02:44:24;;;;;;;1.73;0.90;;;17.70;99.90;;;;;;20916883;28;20238;-68
2023/09/22 02:54:26;;;;;;;4.70;1.70;;;17.60;99.90;;;;;;20916492;28;20709;-71
2023/09/22 03:04:31;;;;;;;3.27;1.40;;;17.60;99.90;;;;;;20914293;28;20345;-69
2023/09/22 03:14:32;;;;;;;2.17;1.50;;;17.60;99.90;;;;;;20914534;28;20214;-69
2023/09/22 03:24:35;;;;;;;1.20;1.10;;;17.60;99.90;;;;;;20913848;28;20268;-69
2023/09/22 03:34:37;;;;;;;2.33;1.10;;;17.60;99.90;;;;;;20913597;28;20294;-69
2023/09/22 03:44:39;;;;;;;1.40;1.20;;;17.40;99.90;;;;;;20912497;28;20594;-72
2023/09/22 03:54:41;;;;;;;3.30;1.60;;;17.40;99.90;;;;;;20911992;28;20741;-69
2023/09/22 04:04:42;;;;;;;1.60;1.13;;;17.30;99.90;;;;;;20912125;28;20228;-71
2023/09/22 04:14:44;;;;;;;3.17;2.50;;;17.30;99.90;;;;;;20911589;28;20210;-70
2023/09/22 04:24:47;;;;;;;1.83;1.17;;;17.20;99.90;;;;;;20911217;28;20239;-70
2023/09/22 04:34:50;;;;;;;4.93;1.40;;;17.30;99.90;;;;;;20910286;28;20211;-72
2023/09/22 04:44:55;;;;;;;3.27;1.20;;;17.30;99.90;;;;;;20910311;28;20284;-71
2023/09/22 04:54:57;;;;;;;6.40;1.20;;;17.30;99.90;;;;;;20917714;28;20260;-69
2023/09/22 05:04:59;;;;;;;3.93;3.00;;;17.20;99.90;;;;;;20884214;28;20236;-68
2023/09/22 05:15:03;;;;;;;2.93;1.40;;;17.20;99.90;;;;;;20896177;28;20216;-67
2023/09/22 05:25:06;;;;;;;1.93;1.33;;;17.10;99.90;;;;;;20856118;28;20275;-66
2023/09/22 05:35:08;;;;;;;4.20;1.73;;;17.10;99.90;;;;;;20851478;28;20300;-67
2023/09/22 05:45:10;;;;;;;4.20;1.43;;;17.10;99.90;;;;;;20866347;28;20275;-68
2023/09/22 05:55:12;;;;;;;2.13;1.50;;;17.10;99.90;;;;;;20837787;28;20251;-70
2023/09/22 06:05:14;;;;;;;2.87;1.30;;;17.20;99.90;;;;;;20837597;28;20241;-68
2023/09/22 06:15:16;;;;;;;7.17;2.70;;;17.10;99.90;;;;;;20836859;28;20273;-66
2023/09/22 06:25:18;;;;;;;3.80;2.40;;;17.10;99.90;;;;;;20836493;28;20247;-69
2023/09/22 06:35:20;;;;;;;5.07;1.83;;;17.20;99.90;;;;;;20834967;28;20619;-67
2023/09/22 06:45:22;;;;;;;2.63;1.57;;;17.20;99.90;;;;;;20833678;28;20330;-67
2023/09/22 06:55:24;;;;;;;2.23;1.53;;;17.20;99.90;;;;;;20833062;28;20248;-69
2023/09/22 07:05:26;;;;;;;2.03;1.30;;;17.20;99.90;;;;;;20833087;28;20597;-67
2023/09/22 07:15:28;;;;;;;2.80;1.60;;;17.30;99.90;;;;;;20831382;28;20215;-68
2023/09/22 07:25:30;;;;;;;4.07;1.50;;;17.40;99.90;;;;;;20830992;28;20245;-69
2023/09/22 07:35:31;;;;;;;2.97;1.50;;;17.40;99.90;;;;;;20847357;28;20298;-69
2023/09/22 07:45:34;;;;;;;1.70;1.60;;;17.60;99.90;;;;;;20876976;28;20239;-71
2023/09/22 07:55:38;;;;;;;2.63;1.70;;;17.60;99.90;;;;;;20856274;28;20592;-69
2023/09/22 08:05:40;;;;;;;1.57;1.20;;;17.80;99.90;;;;;;20829413;28;20285;-67
2023/09/22 08:15:42;;;;;;;2.17;1.30;;;18.00;99.90;;;;;;20908645;28;20203;-69
2023/09/22 08:25:44;;;;;;;1.70;1.27;;;18.10;99.90;;;;;;20914182;28;20277;-69
2023/09/22 08:35:49;;;;;;;3.20;1.43;;;18.30;99.90;;;;;;20926801;28;20210;-68
2023/09/22 08:46:04;;;;;;;36.97;3.77;;;18.50;99.90;;;;;;20881749;28;20603;-67
2023/09/22 08:56:06;;;;;;;2.00;1.30;;;18.60;99.90;;;;;;20889708;28;20232;-68
2023/09/22 09:06:09;;;;;;;3.47;1.23;;;18.70;99.90;;;;;;20885251;28;20236;-68
2023/09/22 09:16:30;;;;;;;1.37;1.00;;;18.60;99.90;;;;;;20887341;28;20662;-68
2023/09/22 09:26:32;;;;;;;3.37;1.30;;;18.70;99.90;;;;;;20877363;28;20238;-67
2023/09/22 09:36:33;;;;;;;4.53;1.07;;;18.70;99.90;;;;;;20839673;28;20226;-68
2023/09/22 09:46:38;;;;;;;3.37;1.03;;;18.60;99.60;;;;;;20894577;28;20775;-67
2023/09/22 09:56:41;;;;;;;1.80;1.07;;;18.60;99.40;;;;;;20885518;28;20235;-67
2023/09/22 10:06:44;;;;;;;1.97;1.07;;;18.60;99.20;;;;;;20879371;28;20327;-64
2023/09/22 10:16:53;;;;;;;2.00;1.20;;;18.60;99.00;;;;;;20883430;28;20264;-71
2023/09/22 10:27:07;;;;;;;2.57;1.13;;;18.90;98.70;;;;;;20862504;28;20232;-72
2023/09/22 10:37:10;;;;;;;6.30;1.20;;;19.10;98.00;;;;;;20834604;28;20287;-78
2023/09/22 10:47:12;;;;;;;1.83;1.03;;;;;;;;;;20877130;28;20406;-72
2023/09/22 10:57:24;;;;;;;3.30;1.00;;;19.20;97.30;;;;;;20903417;28;20232;-74
2023/09/22 11:07:33;;;;;;;2.43;1.10;;;19.20;97.10;;;;;;20832214;28;20238;-68
2023/09/22 11:17:41;;;;;;;0.87;0.87;;;19.30;97.10;;;;;;20861520;28;20302;-66
2023/09/22 11:34:47;;;;;;;2.40;0.90;;;19.30;95.40;;;;;;21152381;27;20489;-73
2023/09/22 11:44:58;;;;;;;1.47;0.97;;;19.50;94.40;;;;;;21066919;28;20210;-69
2023/09/22 11:55:00;;;;;;;4.03;0.93;;;20.00;93.90;;;;;;21065416;28;20696;-70
2023/09/22 12:05:04;;;;;;;3.80;1.00;;;20.10;92.90;;;;;;21065109;28;20237;-74
2023/09/22 12:15:06;;;;;;;2.33;1.13;;;19.90;91.70;;;;;;21064277;28;20218;-73
2023/09/22 12:25:08;;;;;;;1.83;1.20;;;19.90;91.60;;;;;;21055717;28;20330;-72
2023/09/22 12:35:11;;;;;;;2.27;0.90;;;;;;;;;;20979300;28;20226;-72
2023/09/22 12:45:12;;;;;;;1.97;1.60;;;20.20;91.00;;;;;;20926885;28;20366;-72
2023/09/22 12:55:14;;;;;;;3.20;0.93;;;20.10;90.50;;;;;;20922485;28;20247;-71
2023/09/22 13:05:16;;;;;;;2.07;1.40;;;20.20;90.30;;;;;;20905270;28;20635;-76
2023/09/22 13:15:18;;;;;;;4.33;1.70;;;20.20;90.40;;;;;;20930223;28;20259;-72
2023/09/22 13:25:20;;;;;;;3.83;1.50;;;20.20;90.00;;;;;;20920669;28;20236;-72
2023/09/22 13:35:22;;;;;;;3.07;0.90;;;20.30;88.60;;;;;;20917165;28;20210;-70
2023/09/22 13:45:23;;;;;;;3.13;1.47;;;20.20;87.30;;;;;;20918613;28;20239;-68
2023/09/22 13:55:25;;;;;;;1.13;0.80;;;20.70;85.80;;;;;;20917138;28;20250;-69
2023/09/22 14:05:28;;;;;;;1.47;0.83;;;21.60;82.30;;;;;;20917765;28;20245;-69
2023/09/22 14:15:31;;;;;;;2.63;1.10;;;22.40;80.00;;;;;;20916405;28;20303;-69
2023/09/22 14:25:36;;;;;;;1.90;0.87;;;23.50;74.90;;;;;;20915962;28;20246;-66
2023/09/22 14:35:38;;;;;;;1.43;0.87;;;22.40;75.20;;;;;;20914991;28;20214;-69
2023/09/22 14:45:40;;;;;;;4.13;1.00;;;23.00;74.10;;;;;;20896031;28;20687;-69
2023/09/22 14:55:41;;;;;;;3.33;0.80;;;23.10;72.30;;;;;;20913791;28;20726;-70
2023/09/22 15:05:44;;;;;;;5.13;1.10;;;22.70;71.30;;;;;;20913099;28;20267;-66
2023/09/22 15:15:45;;;;;;;6.03;1.13;;;22.20;72.30;;;;;;20912637;28;20215;-71
2023/09/22 15:25:48;;;;;;;3.50;0.90;;;21.60;74.20;;;;;;20911887;28;20721;-72
2023/09/22 15:35:53;;;;;;;4.60;1.10;;;21.50;75.10;;;;;;20894303;28;20216;-77
2023/09/22 15:45:56;;;;;;;6.07;1.97;;;21.10;76.70;;;;;;20875906;28;20262;-69
2023/09/22 15:55:58;;;;;;;1.50;0.90;;;20.90;78.10;;;;;;20859662;28;20629;-79
2023/09/22 16:06:00;;;;;;;0.97;0.80;;;20.70;79.20;;;;;;20828111;28;20232;-74
2023/09/22 16:16:03;;;;;;;2.60;1.00;;;20.70;79.90;;;;;;20816069;28;20208;-68
2023/09/22 16:26:10;;;;;;;1.90;0.90;;;20.60;80.70;;;;;;20842813;28;20258;-66
2023/09/22 16:36:12;;;;;;;2.67;1.00;;;20.50;81.50;;;;;;20826275;28;20306;-67
2023/09/22 16:46:14;;;;;;;2.53;1.20;;;20.40;82.20;;;;;;20841415;28;20236;-66
2023/09/22 16:56:16;;;;;;;1.97;1.00;;;20.30;83.30;;;;;;20840456;28;20267;-66
2023/09/22 17:06:18;;;;;;;1.43;0.93;;;20.10;84.60;;;;;;20840888;28;20696;-66
2023/09/22 17:16:20;;;;;;;7.43;2.10;;;20.00;86.20;;;;;;20839460;28;20212;-66
2023/09/22 17:26:22;;;;;;;1.37;1.17;;;19.70;87.90;;;;;;20838098;28;20590;-66
2023/09/22 17:36:24;;;;;;;1.20;1.10;;;19.70;89.40;;;;;;20837659;28;20208;-66
2023/09/22 17:46:26;;;;;;;1.80;1.30;;;19.60;90.10;;;;;;20837027;28;20334;-65
2023/09/22 17:56:28;;;;;;;4.20;1.20;;;19.40;90.20;;;;;;20836023;28;20209;-66
2023/09/22 18:06:31;;;;;;;1.57;1.07;;;19.20;90.40;;;;;;20835063;28;20706;-67
2023/09/22 18:16:36;;;;;;;3.63;1.03;;;19.00;90.70;;;;;;20834775;28;20295;-67
2023/09/22 18:26:38;;;;;;;2.80;1.30;;;18.90;91.10;;;;;;20862136;28;20271;-65
2023/09/22 18:36:39;;;;;;;2.27;1.40;;;18.70;91.50;;;;;;20895485;28;20635;-66
2023/09/22 18:46:41;;;;;;;1.43;1.30;;;18.60;92.00;;;;;;20832263;28;20319;-67
2023/09/22 18:56:43;;;;;;;2.43;1.10;;;18.50;92.50;;;;;;20875139;28;20203;-65
2023/09/22 19:06:45;;;;;;;2.50;0.70;;;18.50;92.80;;;;;;20913186;28;20235;-65
2023/09/22 19:16:48;;;;;;;2.53;0.70;;;18.20;92.00;;;;;;20914092;28;20633;-67
2023/09/22 19:26:53;;;;;;;3.70;1.00;;;17.90;92.60;;;;;;20900384;28;20643;-63
2023/09/22 19:36:55;;;;;;;0.83;0.80;;;17.50;93.50;;;;;;20911343;28;20712;-65
2023/09/22 19:46:57;;;;;;;1.27;0.80;;;17.30;94.20;;;;;;20911231;28;20259;-68
2023/09/22 19:56:59;;;;;;;1.23;0.70;;;17.10;94.80;;;;;;20927681;28;20205;-67
2023/09/22 20:07:01;;;;;;;1.50;1.00;;;17.00;95.40;;;;;;20927189;28;20264;-65
2023/09/22 20:17:04;;;;;;;3.63;1.00;;;16.90;95.80;;;;;;20904647;28;20215;-66
2023/09/22 20:27:06;;;;;;;1.13;0.80;;;16.70;96.20;;;;;;20837875;28;20246;-69
2023/09/22 20:37:08;;;;;;;1.60;1.13;;;16.70;96.50;;;;;;20924634;28;20204;-64
2023/09/22 20:47:10;;;;;;;1.67;1.00;;;16.60;96.90;;;;;;20924226;28;20239;-64
2023/09/22 20:57:12;;;;;;;2.70;1.10;;;16.50;97.10;;;;;;20923174;28;20580;-65
2023/09/22 21:07:13;;;;;;;2.90;1.40;;;16.50;97.30;;;;;;20922029;28;20228;-66
2023/09/22 21:17:15;;;;;;;3.20;1.20;;;16.40;97.40;;;;;;20922164;28;20240;-65
2023/09/22 21:27:17;;;;;;;1.70;1.00;;;16.40;97.50;;;;;;20903020;28;20239;-64
2023/09/22 21:37:20;;;;;;;1.70;0.90;;;16.20;97.60;;;;;;20920134;28;20208;-67
2023/09/22 21:47:22;;;;;;;2.63;1.10;;;16.10;97.80;;;;;;20919669;28;20698;-66
2023/09/22 21:57:23;;;;;;;2.40;0.90;;;16.10;98.00;;;;;;20918728;28;20607;-66
2023/09/22 22:07:30;;;;;;;3.30;1.10;;;16.10;98.10;;;;;;20917001;28;20236;-66
2023/09/22 22:17:32;;;;;;;3.83;1.20;;;15.90;98.20;;;;;;20899851;28;20208;-66
2023/09/22 22:27:34;;;;;;;1.50;0.90;;;16.00;98.40;;;;;;20915923;28;20241;-66
2023/09/22 22:37:36;;;;;;;3.07;1.20;;;15.80;98.70;;;;;;20915638;28;20735;-67
2023/09/22 22:47:39;;;;;;;2.40;1.10;;;15.80;98.90;;;;;;20914947;28;20236;-65
2023/09/22 22:57:41;;;;;;;2.60;1.00;;;15.70;98.90;;;;;;20914024;28;20219;-64
2023/09/22 23:07:43;;;;;;;3.37;1.23;;;15.60;99.50;;;;;;20913378;28;20327;-66
2023/09/22 23:17:45;;;;;;;6.63;1.30;;;15.60;99.30;;;;;;20912920;28;20211;-66
2023/09/22 23:27:47;;;;;;;2.63;1.10;;;15.60;99.40;;;;;;20912215;28;20244;-67
2023/09/22 23:37:49;;;;;;;2.70;1.13;;;15.40;99.30;;;;;;20912619;28;20628;-68
2023/09/22 23:47:51;;;;;;;2.10;1.20;;;15.30;99.70;;;;;;20912065;28;20246;-65
2023/09/22 23:57:54;;;;;;;2.43;1.03;;;15.40;99.70;;;;;;20911184;28;20199;-66
